Time;durP1;ratioP1;P1;durP2;ratioP2;P2;SDS_P1;SDS_P2;PMS_P1;PMS_P2;Temp;Humidity;BMP_temperature;BMP_pressure;BME280_temperature;BME280_humidity;BME280_pressure;Samples;Min_cycle;Max_cycle;Signal;HPM_P1;HPM_P2
2021/12/16 00:10:00;;;;;;;18.77;13.37;;;4.80;98.10;;;;;;4992441;28;20232;-84
2021/12/16 00:32:19;;;;;;;18.83;13.90;;;4.80;98.50;;;;;;4974759;28;20200;-85
2021/12/16 00:34:47;;;;;;;20.37;13.77;;;4.80;98.30;;;;;;4984000;28;20232;-85
2021/12/16 00:37:14;;;;;;;18.70;13.77;;;4.80;98.20;;;;;;4987802;28;20290;-85
2021/12/16 00:39:44;;;;;;;18.97;13.47;;;4.70;98.30;;;;;;4987982;28;20468;-85
2021/12/16 00:42:22;;;;;;;19.93;14.60;;;4.80;98.30;;;;;;5005405;28;20270;-86
2021/12/16 00:45:08;;;;;;;18.97;14.60;;;4.80;98.60;;;;;;4996470;28;20224;-86
2021/12/16 00:47:47;;;;;;;23.63;14.90;;;4.80;98.40;;;;;;4989735;28;20199;-88
2021/12/16 00:55:55;;;;;;;24.23;15.03;;;4.70;98.40;;;;;;4990655;28;20242;-85
2021/12/16 00:58:26;;;;;;;19.57;14.50;;;4.70;98.40;;;;;;4990985;28;20213;-85
2021/12/16 01:01:08;;;;;;;22.10;15.97;;;4.70;98.60;;;;;;4992320;28;20244;-88
2021/12/16 01:03:42;;;;;;;23.03;14.47;;;4.70;98.60;;;;;;4995945;28;20195;-86
2021/12/16 01:06:26;;;;;;;22.67;16.07;;;4.80;98.80;;;;;;4981524;28;20652;-88
2021/12/16 01:36:41;;;;;;;19.90;14.60;;;4.60;98.90;;;;;;4998660;28;20200;-84
2021/12/16 01:47:50;;;;;;;20.60;13.53;;;4.60;98.80;;;;;;4990386;28;20276;-86
2021/12/16 01:50:24;;;;;;;20.00;13.97;;;4.70;98.70;;;;;;4981399;28;20234;-86
2021/12/16 01:53:12;;;;;;;20.13;15.17;;;4.60;98.70;;;;;;4994609;28;20215;-85
2021/12/16 01:55:48;;;;;;;21.43;14.73;;;4.70;99.00;;;;;;4987239;28;20248;-85
2021/12/16 01:58:18;;;;;;;22.23;15.53;;;4.70;98.80;;;;;;4990797;28;20208;-85
2021/12/16 02:01:12;;;;;;;20.97;14.87;;;4.70;98.60;;;;;;4985343;28;20232;-85
2021/12/16 02:03:44;;;;;;;20.10;14.50;;;4.60;98.70;;;;;;4991970;28;20279;-84
2021/12/16 02:06:37;;;;;;;20.17;14.10;;;4.70;99.10;;;;;;4992494;28;20208;-85
2021/12/16 02:09:08;;;;;;;20.70;14.30;;;4.70;98.80;;;;;;4990288;28;20722;-86
2021/12/16 02:11:49;;;;;;;19.30;13.23;;;4.80;99.10;;;;;;4992141;28;20235;-85
2021/12/16 02:28:18;;;;;;;16.30;11.57;;;4.80;98.40;;;;;;4993300;28;20203;-85
2021/12/16 02:34:23;;;;;;;17.30;13.03;;;4.90;98.80;;;;;;4992716;28;20196;-89
2021/12/16 02:36:43;;;;;;;17.73;12.60;;;4.90;98.20;;;;;;4995715;28;20200;-88
2021/12/16 02:39:15;;;;;;;18.63;13.43;;;4.80;98.20;;;;;;4980428;28;20680;-85
2021/12/16 02:41:46;;;;;;;18.73;12.97;;;4.80;98.50;;;;;;4992351;28;20204;-85
2021/12/16 02:44:22;;;;;;;17.50;12.60;;;4.90;98.70;;;;;;4985540;28;20232;-85
2021/12/16 02:49:39;;;;;;;17.70;12.47;;;4.70;98.60;;;;;;4986814;28;20244;-88
2021/12/16 02:52:07;;;;;;;19.50;12.70;;;4.60;98.80;;;;;;4982880;28;20694;-87
2021/12/16 02:54:36;;;;;;;17.93;12.37;;;4.60;98.80;;;;;;4985923;28;20232;-85
2021/12/16 02:57:04;;;;;;;17.67;12.80;;;4.60;98.80;;;;;;4992935;28;20206;-86
2021/12/16 02:59:31;;;;;;;19.97;12.83;;;4.70;99.00;;;;;;4985405;28;20235;-86
2021/12/16 03:02:05;;;;;;;18.00;13.10;;;4.60;98.80;;;;;;4990751;28;20294;-86
2021/12/16 03:04:33;;;;;;;17.30;12.90;;;4.70;98.90;;;;;;4984388;28;20227;-87
2021/12/16 03:07:01;;;;;;;18.97;13.00;;;4.70;99.10;;;;;;4978980;28;20645;-86
2021/12/16 03:10:01;;;;;;;20.07;13.80;;;4.80;98.90;;;;;;4978966;28;20263;-86
2021/12/16 03:12:49;;;;;;;18.10;12.93;;;4.70;98.70;;;;;;4977625;28;20614;-85
2021/12/16 03:15:29;;;;;;;18.50;13.63;;;4.60;98.70;;;;;;4981534;28;20284;-86
2021/12/16 03:18:03;;;;;;;20.30;13.83;;;4.70;98.80;;;;;;4987144;28;20227;-85
2021/12/16 03:20:38;;;;;;;18.67;13.03;;;4.70;98.80;;;;;;4989549;28;20270;-87
2021/12/16 03:23:32;;;;;;;21.43;14.87;;;4.70;99.00;;;;;;4979352;28;20200;-86
2021/12/16 03:26:27;;;;;;;19.00;13.70;;;4.70;99.00;;;;;;4978003;28;20263;-85
2021/12/16 03:37:17;;;;;;;21.00;15.60;;;4.60;99.30;;;;;;4984293;28;20310;-89
2021/12/16 03:39:49;;;;;;;21.70;14.97;;;4.60;99.10;;;;;;4986843;28;20294;-86
2021/12/16 03:42:19;;;;;;;20.80;14.87;;;4.70;99.10;;;;;;4986508;28;20208;-86
2021/12/16 03:44:57;;;;;;;24.73;15.67;;;4.70;98.90;;;;;;4991894;28;20224;-85
2021/12/16 03:47:34;;;;;;;20.40;14.43;;;4.70;98.90;;;;;;4988803;28;20203;-84
2021/12/16 03:50:04;;;;;;;22.93;16.13;;;4.60;99.20;;;;;;4991536;28;20338;-85
2021/12/16 03:52:31;;;;;;;19.53;14.37;;;4.60;99.00;;;;;;4997406;28;20303;-85
2021/12/16 03:54:59;;;;;;;23.33;15.23;;;4.70;98.90;;;;;;4993288;28;20242;-85
2021/12/16 03:57:30;;;;;;;20.87;14.53;;;4.60;98.70;;;;;;4991061;28;20197;-86
2021/12/16 03:59:59;;;;;;;20.73;13.83;;;4.70;99.20;;;;;;4983351;28;20298;-87
2021/12/16 04:02:31;;;;;;;23.43;15.13;;;5.00;98.70;;;;;;4979549;28;20201;-86
2021/12/16 04:04:59;;;;;;;21.87;15.43;;;5.10;98.20;;;;;;4983516;28;20627;-86
2021/12/16 04:07:30;;;;;;;24.87;16.20;;;5.10;97.70;;;;;;4986003;28;20204;-86
2021/12/16 04:09:59;;;;;;;23.40;15.50;;;5.10;97.70;;;;;;4983145;28;20767;-86
2021/12/16 04:12:28;;;;;;;22.83;16.07;;;5.10;97.80;;;;;;4985769;28;20232;-86
2021/12/16 04:15:00;;;;;;;22.63;16.43;;;4.90;98.00;;;;;;4980637;28;20220;-86
2021/12/16 04:17:29;;;;;;;25.27;17.63;;;4.70;97.90;;;;;;4982911;28;20316;-88
2021/12/16 04:19:59;;;;;;;25.87;17.77;;;4.70;98.40;;;;;;4981877;28;20275;-87
2021/12/16 04:22:32;;;;;;;22.67;15.60;;;4.70;98.60;;;;;;4993668;28;20217;-86
2021/12/16 04:25:02;;;;;;;21.67;16.43;;;4.80;98.70;;;;;;4987772;28;20871;-87
2021/12/16 04:27:29;;;;;;;22.63;16.07;;;4.70;97.90;;;;;;4986434;28;20232;-86
2021/12/16 04:29:58;;;;;;;23.33;16.70;;;4.80;98.40;;;;;;5004787;28;20315;-85
2021/12/16 04:32:26;;;;;;;25.10;16.33;;;4.80;98.00;;;;;;4999157;28;20675;-89
2021/12/16 04:34:53;;;;;;;21.80;16.03;;;4.70;97.90;;;;;;4987955;28;20224;-83
2021/12/16 04:37:20;;;;;;;20.07;14.50;;;4.70;97.60;;;;;;4994383;28;20648;-86
2021/12/16 04:39:48;;;;;;;18.13;13.30;;;4.60;97.80;;;;;;4997352;28;20247;-87
2021/12/16 04:42:19;;;;;;;18.03;12.57;;;4.40;97.80;;;;;;4991289;28;20206;-84
2021/12/16 04:44:46;;;;;;;18.03;12.43;;;4.50;98.30;;;;;;4995938;28;20778;-86
2021/12/16 04:47:15;;;;;;;16.50;13.03;;;4.40;98.20;;;;;;4999253;28;20291;-88
2021/12/16 04:49:42;;;;;;;18.20;13.47;;;4.40;98.10;;;;;;4999918;28;20215;-83
2021/12/16 04:52:13;;;;;;;15.80;11.90;;;4.30;98.30;;;;;;4987463;28;20208;-84
2021/12/16 04:54:40;;;;;;;17.90;12.83;;;4.20;98.60;;;;;;4991403;28;20249;-83
2021/12/16 04:57:08;;;;;;;18.57;13.07;;;4.20;98.90;;;;;;4993578;28;20203;-88
2021/12/16 04:59:37;;;;;;;17.43;12.63;;;4.10;98.80;;;;;;5002270;28;20624;-85
2021/12/16 05:02:08;;;;;;;17.60;13.23;;;4.10;99.00;;;;;;4980644;28;20257;-83
2021/12/16 05:04:36;;;;;;;17.83;12.63;;;4.00;99.10;;;;;;4995313;28;20243;-83
2021/12/16 05:07:06;;;;;;;18.20;12.97;;;4.10;99.40;;;;;;4990346;28;20614;-84
2021/12/16 05:12:22;;;;;;;18.73;12.53;;;4.20;99.40;;;;;;4989204;28;20222;-85
2021/12/16 05:14:50;;;;;;;16.30;12.00;;;4.40;99.70;;;;;;4994937;28;20263;-86
2021/12/16 05:17:26;;;;;;;14.90;11.87;;;4.50;99.20;;;;;;4991085;28;20267;-87
2021/12/16 05:19:57;;;;;;;16.80;12.17;;;4.50;98.70;;;;;;4993165;28;20223;-85
2021/12/16 05:25:19;;;;;;;16.87;11.80;;;4.50;98.60;;;;;;4992277;28;20350;-86
2021/12/16 05:27:47;;;;;;;15.40;11.53;;;4.60;98.50;;;;;;4993510;28;20262;-85
2021/12/16 05:30:14;;;;;;;14.23;10.47;;;4.60;98.10;;;;;;4985041;28;20339;-83
2021/12/16 05:32:45;;;;;;;14.87;10.90;;;4.40;97.80;;;;;;4986760;28;20200;-86
2021/12/16 05:35:18;;;;;;;13.60;10.03;;;4.40;98.00;;;;;;4988667;28;20236;-87
2021/12/16 05:37:46;;;;;;;14.27;10.27;;;4.20;98.00;;;;;;4991017;28;20204;-83
2021/12/16 05:40:15;;;;;;;13.67;9.60;;;4.10;98.30;;;;;;4991838;28;20246;-87
2021/12/16 05:42:43;;;;;;;14.43;9.63;;;4.10;98.70;;;;;;4987055;28;20223;-86
2021/12/16 05:45:11;;;;;;;11.97;9.33;;;4.10;99.00;;;;;;4988824;28;20230;-86
2021/12/16 05:47:38;;;;;;;12.57;9.00;;;4.20;99.00;;;;;;4988940;28;20207;-85
2021/12/16 05:50:08;;;;;;;11.30;7.83;;;4.30;98.90;;;;;;4987724;28;20315;-85
2021/12/16 05:52:36;;;;;;;12.73;8.63;;;4.30;98.60;;;;;;4980001;28;20268;-85
2021/12/16 05:55:04;;;;;;;10.83;7.77;;;4.30;98.30;;;;;;4987132;28;20572;-86
2021/12/16 05:57:31;;;;;;;9.47;6.87;;;4.30;98.20;;;;;;4990893;28;20203;-87
2021/12/16 05:59:58;;;;;;;9.50;6.80;;;4.30;97.90;;;;;;4985947;28;20915;-85
2021/12/16 06:02:26;;;;;;;10.53;7.20;;;4.30;97.70;;;;;;4990971;28;20200;-86
2021/12/16 06:04:53;;;;;;;11.17;7.40;;;4.30;98.10;;;;;;4994638;28;20224;-85
2021/12/16 06:07:21;;;;;;;11.60;7.87;;;4.30;98.40;;;;;;4984793;28;20660;-86
2021/12/16 06:09:55;;;;;;;10.40;7.23;;;4.40;98.30;;;;;;4976966;28;20604;-87
2021/12/16 06:12:24;;;;;;;8.90;6.73;;;4.80;97.60;;;;;;4983127;28;20195;-87
2021/12/16 06:15:02;;;;;;;10.20;7.30;;;4.90;97.50;;;;;;4979799;28;20710;-87
2021/12/16 06:26:26;;;;;;;75.87;50.03;;;5.00;94.90;;;;;;4991924;28;20223;-84
2021/12/16 06:28:53;;;;;;;11.87;8.30;;;5.20;95.70;;;;;;4983167;28;20271;-86
2021/12/16 06:31:21;;;;;;;35.23;22.80;;;4.90;95.10;;;;;;4992779;28;20207;-87
2021/12/16 06:33:55;;;;;;;16.40;11.87;;;5.00;96.30;;;;;;4992406;28;20257;-86
2021/12/16 06:36:22;;;;;;;20.67;13.50;;;5.10;95.10;;;;;;4983881;28;20307;-86
2021/12/16 06:38:49;;;;;;;11.57;8.60;;;5.50;95.20;;;;;;4988846;28;20200;-85
2021/12/16 06:41:27;;;;;;;11.03;8.27;;;5.40;94.20;;;;;;4995890;28;20215;-88
2021/12/16 06:43:56;;;;;;;13.67;8.30;;;5.50;94.20;;;;;;4980328;28;20243;-86
2021/12/16 06:46:32;;;;;;;25.47;13.80;;;5.40;93.80;;;;;;4981208;28;20755;-86
2021/12/16 06:49:00;;;;;;;14.43;9.23;;;5.50;95.20;;;;;;4989655;28;20238;-86
2021/12/16 06:51:38;;;;;;;13.30;9.37;;;5.40;93.70;;;;;;4977640;28;20297;-84
2021/12/16 06:54:06;;;;;;;14.50;10.07;;;5.00;94.80;;;;;;4992017;28;20319;-85
2021/12/16 06:56:48;;;;;;;12.50;9.60;;;4.80;95.10;;;;;;4982760;28;20303;-85
2021/12/16 06:59:23;;;;;;;13.43;9.50;;;4.60;95.40;;;;;;4979140;28;20228;-84
2021/12/16 07:02:03;;;;;;;13.60;9.60;;;4.50;96.10;;;;;;4984285;28;20287;-87
2021/12/16 07:04:30;;;;;;;13.97;9.67;;;4.40;96.30;;;;;;4978843;28;20312;-87
2021/12/16 07:06:59;;;;;;;32.33;21.00;;;4.40;96.10;;;;;;4970143;28;20200;-90
2021/12/16 07:09:26;;;;;;;18.63;11.93;;;4.60;97.50;;;;;;4992316;28;20227;-89
2021/12/16 07:11:57;;;;;;;21.93;14.03;;;4.90;96.10;;;;;;5005624;28;20230;-88
2021/12/16 07:14:35;;;;;;;12.77;8.30;;;5.10;95.30;;;;;;5005458;28;20344;-89
2021/12/16 07:17:05;;;;;;;11.40;7.50;;;4.90;95.10;;;;;;4995058;28;20610;-87
2021/12/16 07:19:32;;;;;;;27.50;16.47;;;4.80;95.00;;;;;;4992492;28;20314;-87
2021/12/16 07:21:59;;;;;;;25.23;17.20;;;5.10;95.70;;;;;;4993431;28;20720;-86
2021/12/16 07:24:26;;;;;;;11.53;8.10;;;5.30;95.10;;;;;;4978308;28;20239;-86
2021/12/16 07:26:54;;;;;;;13.87;8.60;;;5.30;94.00;;;;;;4987055;28;20207;-87
2021/12/16 07:29:21;;;;;;;15.83;11.47;;;5.00;95.10;;;;;;4991439;28;20742;-88
2021/12/16 07:31:48;;;;;;;15.27;10.10;;;5.00;96.00;;;;;;4990171;28;20206;-89
2021/12/16 07:34:15;;;;;;;22.17;14.73;;;5.20;95.70;;;;;;4985761;28;20696;-86
2021/12/16 07:36:44;;;;;;;17.40;10.33;;;5.40;95.60;;;;;;4990678;28;20220;-87
2021/12/16 07:39:14;;;;;;;14.93;8.83;;;5.40;95.10;;;;;;4993518;28;20240;-87
2021/12/16 07:41:43;;;;;;;17.90;9.10;;;5.20;94.70;;;;;;4996056;28;20222;-87
2021/12/16 07:44:11;;;;;;;18.53;12.30;;;5.00;95.10;;;;;;4991602;28;20238;-85
2021/12/16 07:46:39;;;;;;;15.67;11.07;;;5.00;95.70;;;;;;4993743;28;20220;-88
2021/12/16 07:49:09;;;;;;;23.63;14.90;;;5.20;96.10;;;;;;4975017;28;20216;-88
2021/12/16 07:51:36;;;;;;;13.03;8.93;;;5.40;95.90;;;;;;4992595;28;20200;-89
2021/12/16 07:54:04;;;;;;;12.07;8.57;;;5.40;95.10;;;;;;4989789;28;20235;-89
2021/12/16 07:56:32;;;;;;;14.17;9.80;;;5.30;95.10;;;;;;4988391;28;20771;-90
2021/12/16 07:58:59;;;;;;;15.83;9.57;;;5.30;95.20;;;;;;5001769;28;20225;-89
2021/12/16 08:01:33;;;;;;;19.77;11.60;;;5.50;95.20;;;;;;4998328;28;20223;-89
2021/12/16 08:04:00;;;;;;;11.20;8.70;;;5.50;95.20;;;;;;4995885;28;20260;-90
2021/12/16 08:06:31;;;;;;;15.03;9.80;;;5.60;94.80;;;;;;4998935;28;20286;-91
2021/12/16 08:09:02;;;;;;;14.00;8.50;;;5.80;94.70;;;;;;4999440;28;20679;-91
2021/12/16 08:11:32;;;;;;;13.87;9.27;;;5.70;94.10;;;;;;4978016;28;20226;-91
2021/12/16 08:13:59;;;;;;;11.73;8.67;;;5.70;94.30;;;;;;4989875;28;20208;-89
2021/12/16 08:16:26;;;;;;;12.37;8.57;;;5.60;94.30;;;;;;4994205;28;20231;-91
2021/12/16 08:19:16;;;;;;;17.30;12.07;;;5.60;94.50;;;;;;4988032;28;20200;-90
2021/12/16 08:21:43;;;;;;;16.30;10.70;;;5.60;95.20;;;;;;5003387;28;20196;-88
2021/12/16 08:24:17;;;;;;;18.13;10.27;;;6.00;94.20;;;;;;5004336;28;20303;-86
2021/12/16 08:26:46;;;;;;;13.07;9.20;;;6.20;93.60;;;;;;4997687;28;20201;-90
2021/12/16 08:29:13;;;;;;;16.30;10.67;;;6.30;93.10;;;;;;5001585;28;20219;-88
2021/12/16 08:31:41;;;;;;;10.03;7.57;;;6.50;92.70;;;;;;4988623;28;20202;-88
2021/12/16 08:34:10;;;;;;;13.80;9.90;;;6.50;91.80;;;;;;4996430;28;20306;-89
2021/12/16 08:36:37;;;;;;;8.60;6.30;;;6.50;92.10;;;;;;4992398;28;20219;-90
2021/12/16 08:39:08;;;;;;;10.37;7.33;;;6.30;91.50;;;;;;4999994;28;20307;-89
2021/12/16 08:41:39;;;;;;;11.37;7.70;;;6.20;92.00;;;;;;5002093;28;20200;-88
2021/12/16 08:44:06;;;;;;;8.37;6.13;;;6.30;92.50;;;;;;4993546;28;20299;-89
2021/12/16 08:47:31;;;;;;;10.48;7.53;;;6.20;92.70;;;;;;5001975;28;20196;-88
2021/12/16 08:49:59;;;;;;;9.53;5.27;;;6.40;92.20;;;;;;5005080;28;20227;-90
2021/12/16 08:55:08;;;;;;;10.00;7.47;;;6.50;91.20;;;;;;4976533;28;20299;-86
2021/12/16 08:57:35;;;;;;;8.70;6.10;;;6.50;91.20;;;;;;4984636;28;20220;-86
2021/12/16 09:00:03;;;;;;;9.73;7.17;;;6.40;91.30;;;;;;5003308;28;20287;-87
2021/12/16 09:02:30;;;;;;;8.33;5.80;;;6.50;91.30;;;;;;5002732;28;20224;-91
2021/12/16 09:04:58;;;;;;;7.50;5.80;;;6.40;90.70;;;;;;4998399;28;20299;-91
2021/12/16 09:07:25;;;;;;;9.00;6.90;;;6.30;91.20;;;;;;5013909;28;20227;-88
2021/12/16 09:09:54;;;;;;;9.33;6.53;;;6.30;92.20;;;;;;4996417;28;20223;-88
2021/12/16 09:12:48;;;;;;;8.47;5.93;;;6.30;92.40;;;;;;4983159;28;20552;-89
2021/12/16 09:15:21;;;;;;;7.33;5.67;;;6.20;91.60;;;;;;4982571;28;20236;-91
2021/12/16 09:17:49;;;;;;;9.40;6.93;;;6.10;92.10;;;;;;5036298;23;20237;-88
2021/12/16 09:23:00;;;;;;;9.33;6.07;;;6.30;93.10;;;;;;5018150;28;20207;-90
2021/12/16 09:25:27;;;;;;;10.87;6.00;;;6.60;92.30;;;;;;5019549;28;20666;-87
2021/12/16 09:28:27;;;;;;;7.97;6.22;;;6.80;91.10;;;;;;5023352;28;20197;-86
2021/12/16 09:30:55;;;;;;;6.97;5.70;;;6.90;90.70;;;;;;5021777;28;20231;-88
2021/12/16 09:37:20;;;;;;;8.02;5.45;;;6.80;90.50;;;;;;5025169;28;20333;-89
2021/12/16 09:39:48;;;;;;;7.60;5.90;;;6.90;91.10;;;;;;5024447;28;20234;-88
2021/12/16 09:42:15;;;;;;;6.75;5.22;;;7.00;91.30;;;;;;5025631;28;20227;-89
2021/12/16 09:44:52;;;;;;;6.03;4.80;;;7.10;90.80;;;;;;5024622;28;20282;-88
2021/12/16 09:47:23;;;;;;;8.53;5.70;;;7.00;90.40;;;;;;5007050;28;20210;-90
2021/12/16 09:49:51;;;;;;;6.70;4.95;;;6.80;91.30;;;;;;5013077;28;20200;-88
2021/12/16 09:52:18;;;;;;;6.00;4.93;;;6.70;91.60;;;;;;5013141;28;20298;-88
2021/12/16 09:54:48;;;;;;;7.53;5.82;;;6.60;91.80;;;;;;5023853;28;20241;-90
2021/12/16 09:57:24;;;;;;;6.47;5.28;;;6.80;92.20;;;;;;5026378;28;20414;-91
2021/12/16 10:02:43;;;;;;;6.55;4.38;;;6.80;91.10;;;;;;5020781;28;20681;-86
2021/12/16 10:05:11;;;;;;;5.32;4.38;;;7.00;90.90;;;;;;5015852;28;20250;-88
2021/12/16 10:07:38;;;;;;;4.20;3.80;;;7.30;90.90;;;;;;5026254;28;20215;-87
2021/12/16 10:10:10;;;;;;;5.70;4.38;;;7.40;89.70;;;;;;5016768;28;20226;-90
2021/12/16 10:12:41;;;;;;;5.50;4.07;;;7.60;90.10;;;;;;5018785;28;20207;-91
2021/12/16 10:17:51;;;;;;;5.10;3.93;;;7.70;89.80;;;;;;5500328;23;20238;-90
2021/12/16 10:20:20;;;;;;;4.72;4.22;;;7.70;88.30;;;;;;5018798;28;20721;-88
2021/12/16 10:22:50;;;;;;;5.28;4.03;;;7.60;86.70;;;;;;5012913;28;20235;-88
2021/12/16 10:25:28;;;;;;;4.57;3.80;;;7.70;85.20;;;;;;5025279;28;20245;-87
2021/12/16 10:28:14;;;;;;;4.90;4.05;;;7.40;85.80;;;;;;5031053;28;20210;-89
2021/12/16 10:31:00;;;;;;;5.95;4.40;;;7.30;87.20;;;;;;5020127;28;20241;-89
2021/12/16 10:33:49;;;;;;;5.50;4.50;;;7.30;88.10;;;;;;5002727;28;20210;-89
2021/12/16 10:36:21;;;;;;;5.90;4.05;;;7.30;87.10;;;;;;5010955;28;20207;-91
2021/12/16 10:44:21;;;;;;;3.80;3.40;;;8.50;82.90;;;;;;5011869;28;20231;-88
2021/12/16 10:46:50;;;;;;;4.40;3.55;;;9.10;74.20;;;;;;4981527;28;20236;-89
2021/12/16 10:49:20;;;;;;;3.53;3.00;;;9.30;73.30;;;;;;5010532;28;20243;-88
2021/12/16 10:52:32;;;;;;;4.57;3.70;;;8.90;75.10;;;;;;5023024;28;20216;-89
2021/12/16 10:55:00;;;;;;;3.63;3.33;;;9.90;66.00;;;;;;5010669;28;20290;-90
2021/12/16 11:14:07;;;;;;;4.30;3.90;;;8.80;76.10;;;;;;5031550;28;20183;-87
2021/12/16 11:19:34;;;;;;;5.45;3.40;;;8.80;74.80;;;;;;5944975;22;20252;-87
2021/12/16 11:22:04;;;;;;;3.58;3.10;;;8.90;73.80;;;;;;5023725;28;20234;-85
2021/12/16 11:24:47;;;;;;;4.13;2.88;;;8.90;73.80;;;;;;5023089;28;20258;-86
2021/12/16 11:27:31;;;;;;;4.43;3.30;;;9.00;72.60;;;;;;5022260;28;20262;-86
2021/12/16 11:43:30;;;;;;;3.95;2.95;;;8.60;71.30;;;;;;4985497;28;20177;-90
2021/12/16 11:49:02;;;;;;;3.30;3.00;;;8.20;73.00;;;;;;5005117;28;20242;-90
2021/12/16 11:51:34;;;;;;;3.20;2.90;;;8.10;76.30;;;;;;5024593;28;20287;-86
2021/12/16 11:54:06;;;;;;;3.53;3.22;;;8.20;76.50;;;;;;5024620;28;20199;-87
2021/12/16 11:56:37;;;;;;;2.85;2.65;;;7.90;75.50;;;;;;5020454;28;20192;-86
2021/12/16 11:59:06;;;;;;;3.80;3.25;;;8.10;73.00;;;;;;5024655;28;20266;-86
2021/12/16 12:01:37;;;;;;;3.08;2.78;;;8.20;74.30;;;;;;5003218;28;20212;-87
2021/12/16 12:04:06;;;;;;;5.53;2.72;;;8.20;73.00;;;;;;5014628;28;20251;-87
2021/12/16 12:06:35;;;;;;;4.68;3.00;;;8.10;73.00;;;;;;5018708;28;20199;-86
2021/12/16 12:09:07;;;;;;;4.90;3.30;;;7.90;72.70;;;;;;5008013;28;20276;-86
2021/12/16 12:11:36;;;;;;;5.30;3.38;;;8.00;76.10;;;;;;5025960;28;20206;-86
2021/12/16 12:14:07;;;;;;;4.40;3.40;;;7.70;76.10;;;;;;5023635;28;20221;-86
2021/12/16 12:16:38;;;;;;;3.22;2.92;;;7.80;78.50;;;;;;5004879;28;20232;-87
2021/12/16 12:19:12;;;;;;;5.47;4.43;;;7.90;76.80;;;;;;5003506;28;20290;-86
2021/12/16 12:21:43;;;;;;;5.43;4.82;;;7.90;75.90;;;;;;5003175;28;20210;-86
2021/12/16 12:24:14;;;;;;;3.83;3.17;;;7.70;78.00;;;;;;5001037;28;20228;-90
2021/12/16 12:26:44;;;;;;;4.30;3.10;;;7.80;76.80;;;;;;5002705;28;20668;-87
2021/12/16 12:29:14;;;;;;;3.55;3.10;;;7.60;75.60;;;;;;4994899;28;20306;-87
2021/12/16 12:31:46;;;;;;;3.67;3.28;;;7.40;77.90;;;;;;4993753;28;20207;-89
2021/12/16 12:34:14;;;;;;;3.58;2.97;;;7.40;79.10;;;;;;5004541;28;20230;-87
2021/12/16 12:36:41;;;;;;;3.05;2.70;;;7.50;79.50;;;;;;5004444;28;20200;-88
2021/12/16 12:39:15;;;;;;;7.55;3.22;;;7.40;80.20;;;;;;5004403;28;20311;-86
2021/12/16 12:42:16;;;;;;;3.20;2.90;;;7.60;80.90;;;;;;5004142;28;20192;-87
2021/12/16 12:44:44;;;;;;;3.85;2.63;;;7.70;79.60;;;;;;5001537;28;20231;-87
2021/12/16 12:47:16;;;;;;;4.13;3.30;;;7.70;78.90;;;;;;5004852;28;20228;-87
2021/12/16 12:49:44;;;;;;;5.38;3.75;;;7.80;78.30;;;;;;5005593;28;20562;-87
2021/12/16 12:52:39;;;;;;;4.50;2.67;;;7.90;77.70;;;;;;5006467;28;20218;-89
2021/12/16 12:55:13;;;;;;;3.20;2.90;;;8.00;76.60;;;;;;4985260;28;20311;-87
2021/12/16 12:57:41;;;;;;;3.40;3.00;;;7.90;77.00;;;;;;5001689;28;20207;-86
2021/12/16 13:00:24;;;;;;;3.92;2.90;;;8.00;76.10;;;;;;5003568;28;20227;-87
2021/12/16 13:02:58;;;;;;;3.00;2.70;;;8.00;75.50;;;;;;5006344;28;20262;-88
2021/12/16 13:05:33;;;;;;;2.72;2.53;;;8.00;74.80;;;;;;5008979;28;20268;-89
2021/12/16 13:08:03;;;;;;;3.70;3.00;;;7.90;75.80;;;;;;5005314;28;20208;-87
2021/12/16 13:10:33;;;;;;;2.83;2.60;;;7.90;76.80;;;;;;5003378;28;20255;-87
2021/12/16 13:13:28;;;;;;;2.45;2.25;;;7.90;74.70;;;;;;5004103;28;20295;-89
2021/12/16 13:16:15;;;;;;;3.15;2.53;;;7.50;77.00;;;;;;5000875;28;20231;-87
2021/12/16 13:24:40;;;;;;;3.55;2.25;;;7.90;75.30;;;;;;4999825;28;20238;-85
2021/12/16 13:27:20;;;;;;;2.42;2.00;;;7.70;77.70;;;;;;5005373;28;20196;-86
2021/12/16 13:30:07;;;;;;;2.30;2.10;;;7.80;78.50;;;;;;5012352;28;20262;-87
2021/12/16 13:32:44;;;;;;;2.95;2.40;;;7.90;77.40;;;;;;5014275;28;20255;-87
2021/12/16 13:35:33;;;;;;;2.17;1.98;;;7.70;78.10;;;;;;5010528;28;20239;-86
2021/12/16 13:38:06;;;;;;;2.60;2.30;;;7.50;79.90;;;;;;5001627;28;20220;-88
2021/12/16 13:40:36;;;;;;;2.22;2.03;;;7.60;81.10;;;;;;4999681;28;20288;-87
2021/12/16 13:43:11;;;;;;;2.47;2.10;;;7.30;78.50;;;;;;5008984;28;20223;-86
2021/12/16 13:45:47;;;;;;;2.10;1.90;;;7.20;79.00;;;;;;5001671;28;20263;-87
2021/12/16 14:01:14;;;;;;;2.47;2.08;;;7.20;80.60;;;;;;5003605;28;20245;-90
2021/12/16 14:04:55;;;;;;;2.65;2.10;;;7.30;80.80;;;;;;5004713;28;20207;-86
2021/12/16 14:07:54;;;;;;;2.45;1.98;;;7.10;80.60;;;;;;5004572;28;20192;-89
2021/12/16 14:10:48;;;;;;;4.93;1.90;;;7.30;80.00;;;;;;4985300;28;20293;-86
2021/12/16 14:40:36;;;;;;;3.65;2.30;;;7.10;82.20;;;;;;4960217;29;20185;-89
2021/12/16 14:43:17;;;;;;;2.43;2.20;;;7.00;82.80;;;;;;4940416;29;20242;-88
2021/12/16 14:45:56;;;;;;;3.10;2.33;;;6.90;84.00;;;;;;4941353;29;20288;-89
2021/12/16 14:48:27;;;;;;;3.60;2.60;;;6.80;85.00;;;;;;4977221;28;20245;-89
2021/12/16 14:50:59;;;;;;;2.73;2.43;;;6.80;85.10;;;;;;4996674;28;20200;-88
2021/12/16 14:53:30;;;;;;;4.33;3.17;;;6.60;85.90;;;;;;4999699;28;20199;-86
2021/12/16 14:56:00;;;;;;;6.27;5.03;;;6.60;87.40;;;;;;5001578;28;20219;-89
2021/12/16 15:01:37;;;;;;;5.90;5.30;;;6.50;89.90;;;;;;5016579;28;20223;-88
2021/12/16 15:04:07;;;;;;;10.27;5.37;;;6.40;90.50;;;;;;4993739;28;20202;-88
2021/12/16 15:06:44;;;;;;;6.37;5.03;;;6.40;90.90;;;;;;5013602;28;20231;-88
2021/12/16 15:09:18;;;;;;;6.33;5.23;;;6.40;91.50;;;;;;5013218;28;20231;-89
2021/12/16 15:11:53;;;;;;;8.23;6.20;;;6.30;91.70;;;;;;5010001;28;20589;-88
2021/12/16 15:14:33;;;;;;;7.93;5.93;;;6.20;92.00;;;;;;5018941;28;20236;-89
2021/12/16 15:36:46;;;;;;;8.07;6.60;;;5.90;93.50;;;;;;4991187;28;20231;-85
2021/12/16 15:39:42;;;;;;;8.73;6.00;;;5.90;93.50;;;;;;4994706;28;20258;-89
2021/12/16 15:45:00;;;;;;;11.63;6.27;;;6.00;93.30;;;;;;4979460;28;20231;-88
2021/12/16 15:47:28;;;;;;;12.17;6.67;;;6.00;93.30;;;;;;4991970;28;20201;-89
2021/12/16 15:49:55;;;;;;;7.73;6.20;;;6.00;93.10;;;;;;4983794;28;20231;-87
2021/12/16 15:52:24;;;;;;;10.33;6.57;;;6.00;93.20;;;;;;4987328;28;20210;-89
2021/12/16 15:54:52;;;;;;;8.70;6.47;;;5.80;93.20;;;;;;4983376;28;20228;-87
2021/12/16 15:57:26;;;;;;;8.17;6.63;;;5.70;93.50;;;;;;4985073;28;20227;-88
2021/12/16 16:00:19;;;;;;;8.77;6.83;;;5.60;94.00;;;;;;4985545;28;20282;-91
2021/12/16 16:03:16;;;;;;;11.40;6.37;;;5.50;94.40;;;;;;4990490;28;20200;-87
2021/12/16 16:05:46;;;;;;;8.73;6.90;;;5.50;95.20;;;;;;4977932;28;20278;-87
2021/12/16 16:08:20;;;;;;;9.17;6.33;;;5.50;94.70;;;;;;4992749;28;20659;-92
2021/12/16 16:10:52;;;;;;;9.17;6.80;;;5.50;95.10;;;;;;4977318;28;20314;-87
2021/12/16 16:13:21;;;;;;;8.73;6.70;;;5.40;95.20;;;;;;4996058;28;20259;-88
2021/12/16 16:15:51;;;;;;;9.70;7.30;;;5.30;95.10;;;;;;4994643;28;20230;-89
2021/12/16 16:21:07;;;;;;;9.33;6.43;;;5.00;95.60;;;;;;4993904;28;20224;-88
2021/12/16 16:23:37;;;;;;;11.50;7.27;;;5.10;95.70;;;;;;4993139;28;20202;-90
2021/12/16 16:26:25;;;;;;;10.80;7.43;;;5.10;95.90;;;;;;4999864;28;20224;-88
2021/12/16 16:32:14;;;;;;;9.77;7.40;;;5.20;95.10;;;;;;4999399;28;20207;-87
2021/12/16 16:34:44;;;;;;;8.47;6.83;;;5.20;95.30;;;;;;4994398;28;20238;-87
2021/12/16 16:37:13;;;;;;;10.30;7.17;;;5.40;95.10;;;;;;4998862;28;20531;-87
2021/12/16 16:40:14;;;;;;;8.77;6.47;;;5.40;94.80;;;;;;4987493;28;20236;-88
2021/12/16 16:46:17;;;;;;;8.70;6.43;;;5.40;94.10;;;;;;4993528;28;20226;-89
2021/12/16 16:49:10;;;;;;;8.77;6.80;;;5.40;94.20;;;;;;4996923;28;20214;-88
2021/12/16 16:51:41;;;;;;;11.20;7.67;;;5.40;94.70;;;;;;4986575;28;20279;-86
2021/12/16 16:57:38;;;;;;;11.73;8.60;;;5.40;95.10;;;;;;5001108;28;20262;-91
2021/12/16 17:00:25;;;;;;;11.57;8.97;;;5.40;95.30;;;;;;4993971;28;20313;-88
2021/12/16 17:02:54;;;;;;;11.40;8.80;;;5.30;95.10;;;;;;4991734;28;20207;-84
2021/12/16 17:05:32;;;;;;;11.97;9.77;;;5.20;95.10;;;;;;5000701;28;20224;-88
2021/12/16 17:08:04;;;;;;;12.60;10.03;;;5.20;95.30;;;;;;4986037;28;20200;-88
2021/12/16 17:10:38;;;;;;;17.63;10.03;;;5.10;95.60;;;;;;4986627;28;20300;-89
2021/12/16 17:13:10;;;;;;;15.53;10.53;;;5.00;96.00;;;;;;4984447;28;20206;-87
2021/12/16 17:15:45;;;;;;;12.60;9.53;;;4.90;96.30;;;;;;4982576;28;20601;-87
2021/12/16 17:18:20;;;;;;;12.70;9.93;;;4.90;96.50;;;;;;4983804;28;20224;-87
2021/12/16 17:20:48;;;;;;;13.57;10.00;;;5.00;96.50;;;;;;4987653;28;20223;-87
2021/12/16 17:23:17;;;;;;;13.30;9.53;;;5.00;96.30;;;;;;4989647;28;20212;-87
2021/12/16 17:25:44;;;;;;;13.67;10.10;;;5.00;96.50;;;;;;4983126;28;20224;-87
2021/12/16 17:28:17;;;;;;;13.27;10.30;;;5.00;96.40;;;;;;4991078;28;20290;-87
2021/12/16 17:30:46;;;;;;;13.07;10.47;;;5.00;96.20;;;;;;4995315;28;20232;-86
2021/12/16 17:33:22;;;;;;;14.10;10.50;;;5.00;96.20;;;;;;4992174;28;20208;-87